OntCup#1-2013 Dec-Sun Cl,Interval | Zone4.ca



OntCup#1-2013 Dec-Sun Cl,Interval

Date: Dec 29, 2013
Official  Results
Location: Highlands Nordic, Duntroon
Host Club: Highlands Trailblazers

Jury
Technical Delegate:  Len Pizzey 
Chief of Competition:  Richard Lemoine 
Ontario Coach  Pavlina Sudrich 
Race start time:  10:00 a.m. 
Obs. Time: 10:00
Wind Vel:  10 km/hr Wind Dir: northwest 
Air Temp: -1 Snow Temp: -1
Weather: overcast Snow Cond: mach grm powder

Midget Boy 2.5 km. Classic  Classic, Individual Starts  
PL Bib Name CCCLicence DOB Club RealTime Time Diff
1 71 Alexander Maycock   1999 Mono 0:09:19.8 0:09:19.8  
2 89 Hudson McCubbin 31808 1999 North Bay 0:09:31.9 0:09:31.9 +12.0
3 78 Finn Dodgson   1999 Team Hardwood 0:09:33.3 0:09:33.3 +13.5
4 97 Sebastien Gingras 29495 1999 Soo Finnish 0:09:33.8 0:09:33.8 +14.0
5 90 Alec Maclean 31416 1999 Team Hardwood 0:09:46.1 0:09:46.1 +26.3
6 84 Malcolm Thompson   2000 Georgian 0:09:49.6 0:09:49.6 +29.8
7 91 Declan Barber 31417 1999 Team Hardwood 0:10:02.6 0:10:02.6 +42.7
8 96 James Beck 30274 1999 Georgian Bay 0:10:03.9 0:10:03.9 +44.1
9 80 Spencer Vreugdenhil Beaucler   2000 Georgian Bay 0:10:26.7 0:10:26.7 +1:06.9
10 73 Erik Ohrling   2000 Highland Trailblazer 0:10:32.1 0:10:32.1 +1:12.2
11 95 Graham Shearing 31851 1999 Arrowhead 0:10:34.0 0:10:34.0 +1:14.2
12 82 Gavin Bottrell   1999 Georgian Bay 0:10:49.1 0:10:49.1 +1:29.2
13 93 Nicholas Randall 31037 2000 Big Thunder 0:11:14.0 0:11:14.0 +1:54.2
14 79 Dylan Beck   2001 Georgian Bay 0:11:35.7 0:11:35.7 +2:15.9
15 74 Tomaz Cigler   2001 Georgian 0:11:56.7 0:11:56.7 +2:36.9
16 75 Sebastian Grocott   2001 Highland Trailblazer 0:12:19.5 0:12:19.5 +2:59.6
17 85 William Gordon   2000 Team Hardwood 0:12:32.1 0:12:32.1 +3:12.3
18 94 Silas Clusiau 31063 2000 Team Hardwood 0:12:54.9 0:12:54.9 +3:35.0
19 92 Alexander Randall 31038 2002 Big Thunder 0:13:23.1 0:13:23.1 +4:03.3
20 72 Riley De Gans   2002 Arrowhead 0:13:54.9 0:13:54.9 +4:35.1
21 83 James Gordon   2002 Team Hardwood 0:14:12.0 0:14:12.0 +4:52.1
22 81 Joel Zandvliet   2002 Georgian Bay 0:14:35.3 0:14:35.3 +5:15.5
23 87 Isaac Leung   2000 Kanata 0:14:51.8 0:14:51.8 +5:32.0
24 88 Braden Lohnes   2000 Highland Trailblazer 0:14:56.2 0:14:56.2 +5:36.3
DSQ 77 Matthew Randall   2004 Big Thunder *** *** ***
DNS 76 Isaac Rondeau-McNair   1999 Porcupine *** *** ***
DNS 86 Colin Welsh   2001 Arrowhead *** *** ***


Results are posted through an automated system by licenced clubs. For inquires about result corrections please contact the race organizer.

Copyright 2019 - Zone4 Systems zone4.ca       Privacy Policy     Delivery/Refund Policy     Terms of Service    Contact Zone4